Time;durP1;ratioP1;P1;durP2;ratioP2;P2;SDS_P1;SDS_P2;PMS_P1;PMS_P2;Temp;Humidity;BMP_temperature;BMP_pressure;BME280_temperature;BME280_humidity;BME280_pressure;Samples;Min_cycle;Max_cycle;Signal;HPM_P1;HPM_P2
2023/10/19 00:01:12;;;;;;;14.98;5.88;;;;;;;;;;4948579;28;20499;-64
2023/10/19 00:03:38;;;;;;;10.07;5.18;;;;;;;;;;4965524;28;20026;-64
2023/10/19 00:06:05;;;;;;;11.23;6.00;;;;;;;;;;4963867;28;20019;-64
2023/10/19 00:08:46;;;;;;;8.00;4.53;;;;;;;;;;4963902;28;20057;-63
2023/10/19 00:11:26;;;;;;;21.45;6.85;;;;;;;;;;4964907;28;20109;-63
2023/10/19 00:13:54;;;;;;;13.60;5.70;;;;;;;;;;4964791;28;20110;-63
2023/10/19 00:16:29;;;;;;;7.28;4.15;;;;;;;;;;4963353;28;20019;-63
2023/10/19 00:18:59;;;;;;;9.73;4.75;;;;;;;;;;4971749;28;20027;-64
2023/10/19 00:21:25;;;;;;;12.27;5.63;;;;;;;;;;4973162;28;20472;-64
2023/10/19 00:23:56;;;;;;;9.98;5.38;;;;;;;;;;4974195;28;20053;-64
2023/10/19 00:26:25;;;;;;;10.32;5.45;;;;;;;;;;4974523;28;20052;-64
2023/10/19 00:28:53;;;;;;;9.65;4.65;;;;;;;;;;4974273;28;20035;-63
2023/10/19 00:31:22;;;;;;;9.85;4.70;;;;;;;;;;4974329;28;20495;-63
2023/10/19 00:33:51;;;;;;;8.52;4.68;;;;;;;;;;4974105;28;20047;-63
2023/10/19 00:36:20;;;;;;;9.80;5.53;;;;;;;;;;4974355;28;20022;-64
2023/10/19 00:44:10;;;;;;;8.18;4.35;;;;;;;;;;4965318;28;20081;-63
2023/10/19 00:49:12;;;;;;;10.50;4.25;;;;;;;;;;4954792;29;20092;-64
2023/10/19 00:54:28;;;;;;;9.05;5.15;;;;;;;;;;4956483;28;20444;-63
2023/10/19 00:56:58;;;;;;;10.43;5.00;;;;;;;;;;4958880;28;20492;-64
2023/10/19 00:59:29;;;;;;;7.95;3.42;;;;;;;;;;4958740;28;20027;-64
2023/10/19 01:02:03;;;;;;;8.82;4.93;;;;;;;;;;4958681;28;20043;-64
2023/10/19 01:04:34;;;;;;;11.93;5.05;;;;;;;;;;4958779;28;20031;-64
2023/10/19 01:07:21;;;;;;;8.18;4.90;;;;;;;;;;4958414;28;20023;-64
2023/10/19 01:09:46;;;;;;;7.03;4.20;;;;;;;;;;4958518;28;20031;-65
2023/10/19 01:15:07;;;;;;;7.38;4.35;;;;;;;;;;4958659;29;20106;-65
2023/10/19 01:17:38;;;;;;;10.63;4.43;;;;;;;;;;4958404;28;20028;-63
2023/10/19 01:20:13;;;;;;;8.70;4.68;;;;;;;;;;4958499;28;20039;-64
2023/10/19 01:22:46;;;;;;;8.07;4.13;;;;;;;;;;4958126;28;20031;-64
2023/10/19 01:25:14;;;;;;;7.60;3.90;;;;;;;;;;4958356;28;20031;-64
2023/10/19 01:27:39;;;;;;;6.75;4.28;;;;;;;;;;4958086;28;20027;-64
2023/10/19 01:30:09;;;;;;;10.23;5.05;;;;;;;;;;4958175;28;20198;-64
2023/10/19 01:32:34;;;;;;;8.18;4.13;;;;;;;;;;4957963;28;20043;-64
2023/10/19 01:35:00;;;;;;;10.02;4.15;;;;;;;;;;4975768;28;20110;-64
2023/10/19 01:37:25;;;;;;;10.60;5.10;;;;;;;;;;4977541;28;20086;-63
2023/10/19 01:39:52;;;;;;;8.32;4.47;;;;;;;;;;4977138;28;20026;-65
2023/10/19 01:42:17;;;;;;;8.55;4.40;;;;;;;;;;4977289;28;20380;-63
2023/10/19 01:44:43;;;;;;;6.88;3.13;;;;;;;;;;4977129;28;20026;-64
2023/10/19 01:47:08;;;;;;;7.63;3.83;;;;;;;;;;4966291;28;20035;-64
2023/10/19 01:49:34;;;;;;;10.60;4.70;;;;;;;;;;4957600;28;20031;-64
2023/10/19 01:52:00;;;;;;;8.38;4.63;;;;;;;;;;4957808;28;20657;-64
2023/10/19 01:54:25;;;;;;;7.95;4.30;;;;;;;;;;4956604;28;20121;-63
2023/10/19 01:56:54;;;;;;;8.02;4.07;;;;;;;;;;4957858;28;20070;-63
2023/10/19 01:59:22;;;;;;;8.55;4.38;;;;;;;;;;4957688;28;20405;-63
2023/10/19 02:01:49;;;;;;;8.00;3.78;;;;;;;;;;4957409;28;20071;-63
2023/10/19 02:04:15;;;;;;;7.55;4.13;;;;;;;;;;4957273;28;20524;-64
2023/10/19 02:06:40;;;;;;;7.93;3.63;;;;;;;;;;4956788;28;20031;-63
2023/10/19 02:09:16;;;;;;;7.35;4.68;;;;;;;;;;4957374;28;20089;-62
2023/10/19 02:11:42;;;;;;;9.43;3.60;;;;;;;;;;4957524;28;20032;-63
2023/10/19 02:14:15;;;;;;;9.65;4.63;;;;;;;;;;4957362;28;20034;-63
2023/10/19 02:16:46;;;;;;;5.43;3.60;;;;;;;;;;4957393;28;20039;-63
2023/10/19 02:19:12;;;;;;;7.63;3.47;;;;;;;;;;4956990;28;20035;-63
2023/10/19 02:21:39;;;;;;;9.38;4.13;;;;;;;;;;4957228;28;20038;-65
2023/10/19 02:24:07;;;;;;;6.60;3.25;;;;;;;;;;4957254;28;20028;-63
2023/10/19 02:26:33;;;;;;;6.65;3.10;;;;;;;;;;4957143;29;20022;-64
2023/10/19 02:28:59;;;;;;;5.82;3.40;;;;;;;;;;4957172;28;20118;-64
2023/10/19 02:31:25;;;;;;;8.35;3.53;;;;;;;;;;4956969;28;20129;-65
2023/10/19 02:34:00;;;;;;;6.50;2.90;;;;;;;;;;4956837;28;20467;-65
2023/10/19 02:36:30;;;;;;;11.10;3.40;;;;;;;;;;4957102;28;20030;-64
2023/10/19 02:39:10;;;;;;;10.95;3.65;;;;;;;;;;4956855;29;20478;-64
2023/10/19 02:41:37;;;;;;;6.45;3.03;;;;;;;;;;4956927;28;20385;-64
2023/10/19 02:44:19;;;;;;;7.25;3.08;;;;;;;;;;4957735;28;20047;-65
2023/10/19 02:46:52;;;;;;;7.07;3.17;;;;;;;;;;4975915;28;20037;-64
2023/10/19 02:49:20;;;;;;;5.93;2.63;;;;;;;;;;4975958;28;20539;-64
2023/10/19 02:51:46;;;;;;;5.32;3.25;;;;;;;;;;4976054;28;20059;-64
2023/10/19 02:54:25;;;;;;;8.07;3.10;;;;;;;;;;4976060;28;20365;-64
2023/10/19 02:56:53;;;;;;;5.00;3.00;;;;;;;;;;4976093;28;20093;-64
2023/10/19 02:59:23;;;;;;;5.38;3.17;;;;;;;;;;4975882;28;20119;-62
2023/10/19 03:01:50;;;;;;;9.52;3.85;;;;;;;;;;4975760;28;20035;-64
2023/10/19 03:04:16;;;;;;;5.53;3.30;;;;;;;;;;4975648;28;20093;-65
2023/10/19 03:06:41;;;;;;;8.38;3.72;;;;;;;;;;4975898;28;20428;-65
2023/10/19 03:12:10;;;;;;;5.45;3.60;;;;;;;;;;4975912;28;20476;-65
2023/10/19 03:14:37;;;;;;;5.75;3.30;;;;;;;;;;4974367;28;20477;-65
2023/10/19 03:17:04;;;;;;;7.35;3.47;;;;;;;;;;4974630;28;20027;-64
2023/10/19 03:19:29;;;;;;;8.80;3.25;;;;;;;;;;4974131;28;20106;-64
2023/10/19 03:21:55;;;;;;;5.60;3.30;;;;;;;;;;4975527;28;20118;-64
2023/10/19 03:24:36;;;;;;;9.57;3.45;;;;;;;;;;4975663;28;20022;-63
2023/10/19 03:27:23;;;;;;;5.93;3.28;;;;;;;;;;4975397;28;20026;-64
2023/10/19 03:30:00;;;;;;;5.43;3.35;;;;;;;;;;4975350;28;20358;-64
2023/10/19 03:32:32;;;;;;;10.52;3.30;;;;;;;;;;4974894;28;20122;-64
2023/10/19 03:35:01;;;;;;;6.38;3.03;;;;;;;;;;4975070;28;20030;-64
2023/10/19 03:37:30;;;;;;;8.02;3.92;;;;;;;;;;4975431;28;20035;-63
2023/10/19 03:39:56;;;;;;;6.72;3.92;;;;;;;;;;4975129;28;20050;-64
2023/10/19 03:42:25;;;;;;;6.47;4.15;;;;;;;;;;4975025;28;20066;-64
2023/10/19 03:44:57;;;;;;;9.23;3.78;;;;;;;;;;4974964;28;20031;-63
2023/10/19 03:47:34;;;;;;;10.27;4.25;;;;;;;;;;4974708;28;20033;-64
2023/10/19 03:50:07;;;;;;;12.82;4.00;;;;;;;;;;4974960;28;20030;-64
2023/10/19 03:52:37;;;;;;;5.93;3.42;;;;;;;;;;4975005;28;20041;-64
2023/10/19 03:55:05;;;;;;;6.65;3.75;;;;;;;;;;4974656;28;20042;-63
2023/10/19 03:57:31;;;;;;;7.65;3.35;;;;;;;;;;4974740;28;20027;-64
2023/10/19 03:59:57;;;;;;;7.35;3.63;;;;;;;;;;4974810;28;20417;-64
2023/10/19 04:02:28;;;;;;;9.75;4.40;;;;;;;;;;4974352;28;20387;-63
2023/10/19 04:04:55;;;;;;;6.93;4.05;;;;;;;;;;4974308;28;20027;-64
2023/10/19 04:07:21;;;;;;;9.57;3.75;;;;;;;;;;4974678;28;20034;-63
2023/10/19 04:10:09;;;;;;;7.78;3.63;;;;;;;;;;4974355;28;20026;-65
2023/10/19 04:12:37;;;;;;;4.50;2.72;;;;;;;;;;4974609;28;20025;-65
2023/10/19 04:17:42;;;;;;;6.28;3.70;;;;;;;;;;4974326;28;20022;-65
2023/10/19 04:20:26;;;;;;;7.93;4.13;;;;;;;;;;4974355;28;20034;-65
2023/10/19 04:22:53;;;;;;;11.57;4.13;;;;;;;;;;4974254;28;20069;-64
2023/10/19 04:25:20;;;;;;;9.25;4.47;;;;;;;;;;4974106;28;20037;-65
2023/10/19 04:27:46;;;;;;;8.38;5.00;;;;;;;;;;4974302;28;20085;-65
2023/10/19 04:30:16;;;;;;;9.70;4.80;;;;;;;;;;4973793;28;20038;-66
2023/10/19 04:32:43;;;;;;;7.60;4.50;;;;;;;;;;4974084;28;20050;-63
2023/10/19 04:35:09;;;;;;;10.98;5.38;;;;;;;;;;4954951;28;20089;-64
2023/10/19 04:37:35;;;;;;;9.13;4.90;;;;;;;;;;4954998;28;20102;-63
2023/10/19 04:40:00;;;;;;;7.90;4.15;;;;;;;;;;4954700;28;20362;-64
2023/10/19 04:42:27;;;;;;;9.73;5.60;;;;;;;;;;4954724;28;20520;-63
2023/10/19 04:44:54;;;;;;;10.65;4.28;;;;;;;;;;4962154;28;20161;-63
2023/10/19 04:47:20;;;;;;;13.35;5.55;;;;;;;;;;4961928;28;20031;-64
2023/10/19 04:49:45;;;;;;;6.70;3.90;;;;;;;;;;4954756;28;20038;-65
2023/10/19 04:52:10;;;;;;;8.93;5.22;;;;;;;;;;4954769;28;20031;-65
2023/10/19 04:54:37;;;;;;;10.30;5.50;;;;;;;;;;4954796;29;20027;-64
2023/10/19 04:57:03;;;;;;;9.23;5.25;;;;;;;;;;4954656;28;20055;-64
2023/10/19 04:59:32;;;;;;;8.93;5.68;;;;;;;;;;4954549;28;20505;-64
2023/10/19 05:01:58;;;;;;;9.48;5.90;;;;;;;;;;4954563;28;20027;-65
2023/10/19 05:04:24;;;;;;;14.02;5.30;;;;;;;;;;4954607;28;20551;-64
2023/10/19 05:06:49;;;;;;;13.25;6.22;;;;;;;;;;4954688;28;20532;-62
2023/10/19 05:09:15;;;;;;;6.78;4.35;;;;;;;;;;4954456;28;20047;-64
2023/10/19 05:11:40;;;;;;;9.43;5.25;;;;;;;;;;4954450;28;20040;-63
2023/10/19 05:14:06;;;;;;;9.07;5.53;;;;;;;;;;4954326;28;20031;-63
2023/10/19 05:16:31;;;;;;;12.30;4.57;;;;;;;;;;4954489;28;20027;-64
2023/10/19 05:18:57;;;;;;;8.77;5.03;;;;;;;;;;4954176;28;20110;-63
2023/10/19 05:21:22;;;;;;;10.50;4.60;;;;;;;;;;4954342;28;20035;-64
2023/10/19 05:23:48;;;;;;;9.60;4.93;;;;;;;;;;4954339;28;20035;-63
2023/10/19 05:26:14;;;;;;;10.77;5.43;;;;;;;;;;4954616;28;20110;-63
2023/10/19 05:28:42;;;;;;;10.40;4.70;;;;;;;;;;4954087;28;20067;-64
2023/10/19 05:31:08;;;;;;;6.22;3.03;;;;;;;;;;4954384;28;20027;-63
2023/10/19 05:33:34;;;;;;;9.25;5.05;;;;;;;;;;4954144;28;20396;-63
2023/10/19 05:36:01;;;;;;;9.13;3.83;;;;;;;;;;4954336;28;20385;-64
2023/10/19 05:38:27;;;;;;;11.57;5.80;;;;;;;;;;4954288;28;20396;-65
2023/10/19 05:40:52;;;;;;;8.25;4.43;;;;;;;;;;4955074;28;20019;-64
2023/10/19 05:43:18;;;;;;;13.27;5.25;;;;;;;;;;4957457;28;20027;-66
2023/10/19 05:45:44;;;;;;;12.60;5.30;;;;;;;;;;4971862;28;20391;-64
2023/10/19 05:48:11;;;;;;;7.28;4.60;;;;;;;;;;4976810;28;20031;-64
2023/10/19 05:50:36;;;;;;;8.60;5.85;;;;;;;;;;4977066;28;20027;-64
2023/10/19 05:53:03;;;;;;;10.90;5.40;;;;;;;;;;4977028;28;20026;-63
2023/10/19 05:55:29;;;;;;;14.65;6.50;;;;;;;;;;4977126;28;20062;-63
2023/10/19 05:57:55;;;;;;;14.68;5.35;;;;;;;;;;4976719;28;20031;-62
2023/10/19 06:00:21;;;;;;;11.77;5.43;;;;;;;;;;4976501;28;20042;-63
2023/10/19 06:02:51;;;;;;;17.85;6.20;;;;;;;;;;4976415;28;20027;-63
2023/10/19 06:05:18;;;;;;;9.13;5.63;;;;;;;;;;4976794;28;20031;-64
2023/10/19 06:07:48;;;;;;;13.85;5.82;;;;;;;;;;4976671;28;20022;-63
2023/10/19 06:10:16;;;;;;;9.38;3.83;;;;;;;;;;4976645;28;20023;-64
2023/10/19 06:12:45;;;;;;;16.17;5.95;;;;;;;;;;4976544;28;20111;-62
2023/10/19 06:15:12;;;;;;;19.60;7.53;;;;;;;;;;4976558;28;20034;-63
2023/10/19 06:17:41;;;;;;;15.07;6.32;;;;;;;;;;4976443;28;20027;-63
2023/10/19 06:20:08;;;;;;;18.20;7.38;;;;;;;;;;4976746;28;20385;-64
2023/10/19 06:22:37;;;;;;;21.23;7.13;;;;;;;;;;4976589;28;20039;-64
2023/10/19 06:25:05;;;;;;;17.55;6.95;;;;;;;;;;4976394;28;20070;-64
2023/10/19 06:27:31;;;;;;;15.05;7.72;;;;;;;;;;4976421;28;20030;-64
2023/10/19 06:29:56;;;;;;;17.98;7.00;;;;;;;;;;4975913;28;20034;-65
2023/10/19 06:32:22;;;;;;;19.13;7.28;;;;;;;;;;4975968;28;20050;-65
2023/10/19 06:34:47;;;;;;;15.18;6.78;;;;;;;;;;4976388;28;20030;-65
2023/10/19 06:37:13;;;;;;;15.85;6.25;;;;;;;;;;4961114;28;20031;-65
2023/10/19 06:39:40;;;;;;;12.23;5.85;;;;;;;;;;4974083;28;20170;-64
2023/10/19 06:42:13;;;;;;;13.82;5.60;;;;;;;;;;4974996;28;20026;-63
2023/10/19 06:44:40;;;;;;;14.98;6.13;;;;;;;;;;4973705;28;20030;-63
2023/10/19 06:47:06;;;;;;;14.07;7.03;;;;;;;;;;4976667;28;20388;-64
2023/10/19 06:49:32;;;;;;;13.80;6.18;;;;;;;;;;4975657;28;20034;-63
2023/10/19 06:51:57;;;;;;;21.13;6.30;;;;;;;;;;4975598;28;20034;-64
2023/10/19 06:54:23;;;;;;;14.45;6.07;;;;;;;;;;4976409;28;20019;-63
2023/10/19 06:56:48;;;;;;;15.18;5.80;;;;;;;;;;4975684;28;20030;-63
2023/10/19 06:59:13;;;;;;;11.07;5.22;;;;;;;;;;4975436;28;20050;-63
2023/10/19 07:01:40;;;;;;;18.70;6.55;;;;;;;;;;4975644;28;20112;-63
2023/10/19 07:04:05;;;;;;;14.68;6.28;;;;;;;;;;4975556;28;20035;-63
2023/10/19 07:06:31;;;;;;;15.40;6.07;;;;;;;;;;4975605;28;20110;-63
2023/10/19 07:08:57;;;;;;;11.30;6.47;;;;;;;;;;4975015;28;20030;-63
2023/10/19 07:11:24;;;;;;;10.07;4.80;;;;;;;;;;4976371;28;20074;-63
2023/10/19 07:13:49;;;;;;;10.63;5.13;;;;;;;;;;4975025;28;20065;-63
2023/10/19 07:16:15;;;;;;;8.45;4.88;;;;;;;;;;4978006;28;20053;-63
2023/10/19 07:18:40;;;;;;;14.10;6.97;;;;;;;;;;4993192;28;20034;-65
2023/10/19 07:21:09;;;;;;;18.77;7.18;;;;;;;;;;4975033;28;20034;-63
2023/10/19 07:23:37;;;;;;;13.18;7.10;;;;;;;;;;4974795;28;20106;-63
2023/10/19 07:26:03;;;;;;;12.23;6.18;;;;;;;;;;4975087;28;20110;-62
2023/10/19 07:28:29;;;;;;;11.55;6.25;;;;;;;;;;4974846;28;20062;-64
2023/10/19 07:30:56;;;;;;;12.27;5.95;;;;;;;;;;4974305;28;20035;-64
2023/10/19 07:33:22;;;;;;;12.85;5.97;;;;;;;;;;4974208;28;20058;-64
2023/10/19 07:35:54;;;;;;;11.27;5.40;;;;;;;;;;4974901;28;20046;-63
2023/10/19 07:38:21;;;;;;;15.25;6.20;;;;;;;;;;4974647;28;20497;-64
2023/10/19 07:40:47;;;;;;;11.73;6.03;;;;;;;;;;4974611;28;20092;-64
2023/10/19 07:43:13;;;;;;;12.15;6.03;;;;;;;;;;4975010;28;20035;-63
2023/10/19 07:45:42;;;;;;;11.57;6.55;;;;;;;;;;4973936;28;20026;-64
2023/10/19 07:48:13;;;;;;;9.83;5.27;;;;;;;;;;4974666;28;20031;-64
2023/10/19 07:50:42;;;;;;;11.90;5.88;;;;;;;;;;4973947;28;20030;-63
2023/10/19 07:53:09;;;;;;;11.15;5.88;;;;;;;;;;4973808;28;20476;-63
2023/10/19 07:55:34;;;;;;;8.60;5.40;;;;;;;;;;4974599;28;20385;-62
2023/10/19 07:58:00;;;;;;;11.32;5.60;;;;;;;;;;4974614;28;20037;-63
2023/10/19 08:00:26;;;;;;;12.10;6.22;;;;;;;;;;4974554;28;20030;-62
2023/10/19 08:02:53;;;;;;;11.48;6.18;;;;;;;;;;4974464;28;20030;-62
2023/10/19 08:05:19;;;;;;;12.73;6.47;;;;;;;;;;4972658;28;20483;-62
2023/10/19 08:07:48;;;;;;;20.08;8.15;;;;;;;;;;4974099;28;20408;-63
2023/10/19 08:10:17;;;;;;;13.18;6.20;;;;;;;;;;4974412;28;20148;-63
2023/10/19 08:12:43;;;;;;;11.77;6.47;;;;;;;;;;4974335;28;20085;-63
2023/10/19 08:15:13;;;;;;;13.70;7.18;;;;;;;;;;4974254;28;20121;-63
2023/10/19 08:17:40;;;;;;;13.02;6.50;;;;;;;;;;4974070;28;20035;-63
2023/10/19 08:20:15;;;;;;;11.70;6.45;;;;;;;;;;4974296;28;20035;-63
2023/10/19 08:22:42;;;;;;;14.27;6.43;;;;;;;;;;4974117;28;20104;-63
2023/10/19 08:25:17;;;;;;;12.70;6.55;;;;;;;;;;4974213;28;20373;-63
2023/10/19 08:27:49;;;;;;;11.88;6.78;;;;;;;;;;4974000;28;20034;-63
2023/10/19 08:30:19;;;;;;;11.32;7.05;;;;;;;;;;4971879;28;20027;-63
2023/10/19 08:32:48;;;;;;;13.33;7.37;;;;;;;;;;4954554;28;20047;-63
2023/10/19 08:35:25;;;;;;;12.30;7.13;;;;;;;;;;4974005;28;20269;-64
2023/10/19 08:37:56;;;;;;;11.55;6.60;;;;;;;;;;4973505;28;20034;-63
2023/10/19 08:40:23;;;;;;;;;;;;;;;;;;4962774;28;20497;-63
2023/10/19 08:42:48;;;;;;;10.23;5.75;;;;;;;;;;4973879;28;19918;-63
2023/10/19 08:45:16;;;;;;;11.82;6.90;;;;;;;;;;4973869;28;20023;-63
2023/10/19 08:48:04;;;;;;;15.05;7.57;;;;;;;;;;4974593;28;20023;-63
2023/10/19 08:50:33;;;;;;;18.33;7.43;;;;;;;;;;4973674;28;20026;-63
2023/10/19 08:53:02;;;;;;;14.65;6.68;;;;;;;;;;4973833;28;20472;-63
2023/10/19 08:55:27;;;;;;;16.42;7.53;;;;;;;;;;4973860;28;20113;-63
2023/10/19 08:57:53;;;;;;;16.00;7.78;;;;;;;;;;4973753;28;20477;-63
2023/10/19 09:00:19;;;;;;;17.42;8.45;;;;;;;;;;4973696;28;20030;-63
2023/10/19 09:02:48;;;;;;;11.35;6.85;;;;;;;;;;4973593;28;20055;-63
2023/10/19 09:05:22;;;;;;;13.50;6.80;;;;;;;;;;4973316;28;20037;-63
2023/10/19 09:07:54;;;;;;;13.40;7.30;;;;;;;;;;4973278;28;20365;-63
2023/10/19 09:10:22;;;;;;;14.45;7.28;;;;;;;;;;4973706;28;20439;-63
2023/10/19 09:13:01;;;;;;;12.43;6.72;;;;;;;;;;4973678;28;20392;-63
2023/10/19 09:15:27;;;;;;;8.23;5.07;;;;;;;;;;4973791;28;20022;-63
2023/10/19 09:17:54;;;;;;;14.98;7.38;;;;;;;;;;4977350;28;20019;-63
2023/10/19 09:20:27;;;;;;;17.13;8.55;;;;;;;;;;4977123;28;20018;-64
2023/10/19 09:22:54;;;;;;;14.60;8.18;;;;;;;;;;4977413;28;20034;-63
2023/10/19 09:25:20;;;;;;;18.38;8.52;;;;;;;;;;4977366;28;20033;-63
2023/10/19 09:27:46;;;;;;;16.40;9.32;;;;;;;;;;4976571;28;20023;-63
2023/10/19 09:30:18;;;;;;;18.38;8.48;;;;;;;;;;4977292;28;20078;-63
2023/10/19 09:32:46;;;;;;;16.25;8.45;;;;;;;;;;4976916;28;20047;-63
2023/10/19 09:35:15;;;;;;;14.23;8.65;;;;;;;;;;4976850;28;20042;-62
2023/10/19 09:37:43;;;;;;;15.93;7.68;;;;;;;;;;4977012;28;20118;-63
2023/10/19 09:40:13;;;;;;;16.58;8.93;;;;;;;;;;4965532;28;20078;-63
2023/10/19 09:42:46;;;;;;;19.05;9.20;;;;;;;;;;4957683;28;20465;-64
2023/10/19 09:45:12;;;;;;;21.55;7.97;;;;;;;;;;4957739;28;20393;-63
2023/10/19 09:47:46;;;;;;;19.00;8.32;;;;;;;;;;4976616;28;20433;-63
2023/10/19 09:50:12;;;;;;;13.95;7.82;;;;;;;;;;4976572;28;20031;-63
2023/10/19 09:52:39;;;;;;;16.42;6.78;;;;;;;;;;4976887;28;20030;-63
2023/10/19 09:55:19;;;;;;;15.02;8.40;;;;;;;;;;4976895;28;20059;-64
2023/10/19 09:57:55;;;;;;;15.52;8.93;;;;;;;;;;4976636;28;20019;-64
2023/10/19 10:00:23;;;;;;;16.83;7.32;;;;;;;;;;4976690;28;20039;-63
2023/10/19 10:02:50;;;;;;;15.80;7.65;;;;;;;;;;4976505;28;20027;-63
2023/10/19 10:05:43;;;;;;;21.48;8.00;;;;;;;;;;4976640;28;20031;-65
2023/10/19 10:08:17;;;;;;;15.73;8.57;;;;;;;;;;4976649;28;20106;-64
2023/10/19 10:10:50;;;;;;;16.75;10.10;;;;;;;;;;4976500;28;20469;-64
2023/10/19 10:13:28;;;;;;;16.58;7.22;;;;;;;;;;4976465;28;20495;-63
2023/10/19 10:15:54;;;;;;;14.45;8.65;;;;;;;;;;4976466;28;20109;-64
2023/10/19 10:18:20;;;;;;;12.73;7.95;;;;;;;;;;4976205;28;20059;-64
2023/10/19 10:20:47;;;;;;;14.98;8.10;;;;;;;;;;4976273;28;20057;-63
2023/10/19 10:23:32;;;;;;;10.68;6.90;;;;;;;;;;4976199;28;20119;-64
2023/10/19 10:25:58;;;;;;;17.00;8.75;;;;;;;;;;4976293;28;20034;-64
2023/10/19 10:28:24;;;;;;;19.63;9.02;;;;;;;;;;4975468;28;20081;-63
2023/10/19 10:31:22;;;;;;;14.48;7.97;;;;;;;;;;4976267;28;20023;-64
2023/10/19 10:33:49;;;;;;;16.55;8.05;;;;;;;;;;4934890;29;20048;-63
2023/10/19 10:36:16;;;;;;;19.65;8.35;;;;;;;;;;4935347;29;20039;-64
2023/10/19 10:38:43;;;;;;;13.20;7.68;;;;;;;;;;4935223;29;20233;-64
2023/10/19 10:41:12;;;;;;;14.68;8.35;;;;;;;;;;4935135;29;20073;-65
2023/10/19 10:43:56;;;;;;;23.20;9.88;;;;;;;;;;4935043;29;20521;-64
2023/10/19 10:46:27;;;;;;;17.67;8.10;;;;;;;;;;4933915;29;20055;-63
2023/10/19 10:48:53;;;;;;;21.88;8.80;;;;;;;;;;4919147;29;20079;-64
2023/10/19 10:51:23;;;;;;;22.05;9.48;;;;;;;;;;4935153;29;20031;-63
2023/10/19 10:53:52;;;;;;;19.02;9.38;;;;;;;;;;4935043;29;20098;-64
2023/10/19 10:56:19;;;;;;;22.70;9.70;;;;;;;;;;4935244;29;20032;-64
2023/10/19 10:58:45;;;;;;;19.75;9.65;;;;;;;;;;4919379;29;20532;-63
2023/10/19 11:01:11;;;;;;;23.38;10.10;;;;;;;;;;4934936;29;20043;-63
2023/10/19 11:03:40;;;;;;;22.00;10.55;;;;;;;;;;4934730;29;20051;-64
2023/10/19 11:06:10;;;;;;;23.23;11.00;;;;;;;;;;4934682;29;20512;-64
2023/10/19 11:08:36;;;;;;;15.53;7.20;;;;;;;;;;4942287;28;20049;-63
2023/10/19 11:11:11;;;;;;;21.75;9.32;;;;;;;;;;4974203;28;20257;-63
2023/10/19 11:13:38;;;;;;;17.35;7.07;;;;;;;;;;4975384;28;20495;-62
2023/10/19 11:16:06;;;;;;;20.25;9.57;;;;;;;;;;4975192;28;20031;-62
2023/10/19 11:18:45;;;;;;;15.57;8.05;;;;;;;;;;4975137;28;20480;-64
2023/10/19 11:21:12;;;;;;;14.48;7.00;;;;;;;;;;4975435;28;20026;-63
2023/10/19 11:23:48;;;;;;;27.35;11.38;;;;;;;;;;4975137;28;20473;-63
2023/10/19 11:26:16;;;;;;;16.10;9.45;;;;;;;;;;4975074;28;20031;-64
2023/10/19 11:28:51;;;;;;;21.88;9.75;;;;;;;;;;4974749;28;20030;-63
2023/10/19 11:31:23;;;;;;;25.83;10.00;;;;;;;;;;4974743;28;20122;-63
2023/10/19 11:33:51;;;;;;;14.85;9.38;;;;;;;;;;4974633;28;20049;-64
2023/10/19 11:36:18;;;;;;;23.42;10.60;;;;;;;;;;4974919;28;20023;-63
2023/10/19 11:38:45;;;;;;;15.00;8.52;;;;;;;;;;4973791;28;20031;-61
2023/10/19 11:41:13;;;;;;;15.30;7.95;;;;;;;;;;4963715;28;20146;-64
2023/10/19 11:43:42;;;;;;;14.05;7.35;;;;;;;;;;4974661;28;20400;-63
2023/10/19 11:46:09;;;;;;;15.18;7.55;;;;;;;;;;4975597;28;20027;-63
2023/10/19 11:48:36;;;;;;;20.17;11.27;;;;;;;;;;4974614;28;20085;-63
2023/10/19 11:51:03;;;;;;;24.42;11.25;;;;;;;;;;4974774;28;20023;-64
2023/10/19 11:53:33;;;;;;;23.15;9.57;;;;;;;;;;4974477;28;20053;-63
2023/10/19 11:56:03;;;;;;;;;;;;;;;;;;4974915;28;20037;-64
2023/10/19 11:58:32;;;;;;;26.45;10.02;;;;;;;;;;4974506;28;19918;-64
2023/10/19 12:00:58;;;;;;;35.47;11.32;;;;;;;;;;4974530;28;20085;-63
2023/10/19 12:03:25;;;;;;;20.95;10.27;;;;;;;;;;4974450;28;20158;-63
2023/10/19 12:05:52;;;;;;;14.20;7.78;;;;;;;;;;4974346;28;20035;-63
2023/10/19 12:08:18;;;;;;;17.35;7.55;;;;;;;;;;4974196;28;20481;-63
2023/10/19 12:10:44;;;;;;;20.58;9.95;;;;;;;;;;4974500;28;20117;-63
2023/10/19 12:13:09;;;;;;;17.60;8.80;;;;;;;;;;4974002;28;20029;-64
2023/10/19 12:15:35;;;;;;;22.02;9.88;;;;;;;;;;4974316;28;20030;-63
2023/10/19 12:18:02;;;;;;;23.88;9.57;;;;;;;;;;4972912;28;20035;-63
2023/10/19 12:20:30;;;;;;;19.80;11.48;;;;;;;;;;4974200;28;20027;-63
2023/10/19 12:22:56;;;;;;;19.15;8.70;;;;;;;;;;4974206;28;20143;-63
2023/10/19 12:25:28;;;;;;;21.73;7.78;;;;;;;;;;4973672;28;20031;-63
2023/10/19 12:27:57;;;;;;;17.60;8.75;;;;;;;;;;4973717;28;20476;-63
2023/10/19 12:30:26;;;;;;;17.38;10.25;;;;;;;;;;4973878;28;20027;-63
2023/10/19 12:32:52;;;;;;;16.85;9.35;;;;;;;;;;4973588;28;20417;-63
2023/10/19 12:35:19;;;;;;;15.85;8.00;;;;;;;;;;4973898;28;20114;-63
2023/10/19 12:37:51;;;;;;;20.23;9.70;;;;;;;;;;4973783;28;20034;-64
2023/10/19 12:40:26;;;;;;;17.02;10.38;;;;;;;;;;4955497;28;20035;-63
2023/10/19 12:42:54;;;;;;;20.95;9.88;;;;;;;;;;4973629;28;20539;-63
2023/10/19 12:45:24;;;;;;;21.38;10.98;;;;;;;;;;4973621;28;20026;-63
2023/10/19 12:47:51;;;;;;;18.33;9.07;;;;;;;;;;4972476;28;20026;-63
2023/10/19 12:50:23;;;;;;;26.63;11.38;;;;;;;;;;4972101;28;20023;-63
2023/10/19 12:52:51;;;;;;;14.57;8.57;;;;;;;;;;4973642;28;20034;-65
2023/10/19 12:55:19;;;;;;;22.58;9.25;;;;;;;;;;4973453;28;20408;-63
2023/10/19 12:57:44;;;;;;;20.02;9.88;;;;;;;;;;4973171;28;20065;-63
2023/10/19 13:03:08;;;;;;;20.75;12.23;;;;;;;;;;4932583;29;20051;-63
2023/10/19 13:05:37;;;;;;;21.30;9.48;;;;;;;;;;4932631;29;20035;-63
2023/10/19 13:08:15;;;;;;;20.08;10.52;;;;;;;;;;4932888;29;20035;-63
2023/10/19 13:10:43;;;;;;;19.92;10.25;;;;;;;;;;4933002;29;20039;-63
2023/10/19 13:13:13;;;;;;;17.30;10.27;;;;;;;;;;4932588;29;20118;-64
2023/10/19 13:15:41;;;;;;;19.50;11.07;;;;;;;;;;4932768;29;20032;-63
2023/10/19 13:18:09;;;;;;;21.65;10.82;;;;;;;;;;4932754;29;20038;-64
2023/10/19 13:20:36;;;;;;;12.63;7.25;;;;;;;;;;4932923;29;20445;-63
2023/10/19 13:23:03;;;;;;;15.68;9.98;;;;;;;;;;4932917;29;20039;-63
2023/10/19 13:25:47;;;;;;;17.90;9.48;;;;;;;;;;4916811;29;20044;-63
2023/10/19 13:28:14;;;;;;;14.30;7.72;;;;;;;;;;4933104;29;20094;-63
2023/10/19 13:30:41;;;;;;;17.88;10.35;;;;;;;;;;4932666;29;20035;-63
2023/10/19 13:33:09;;;;;;;17.70;8.15;;;;;;;;;;4932109;29;20044;-63
2023/10/19 13:35:35;;;;;;;18.60;9.60;;;;;;;;;;4932791;29;20031;-63
2023/10/19 13:38:01;;;;;;;18.40;9.75;;;;;;;;;;4938804;28;20095;-63
2023/10/19 13:40:30;;;;;;;21.92;9.38;;;;;;;;;;4961411;28;20118;-63
2023/10/19 13:42:58;;;;;;;22.60;9.65;;;;;;;;;;4973156;28;20034;-62
2023/10/19 13:45:24;;;;;;;16.42;9.30;;;;;;;;;;4973320;28;20027;-63
2023/10/19 13:47:54;;;;;;;16.58;7.97;;;;;;;;;;4973436;28;20049;-64
2023/10/19 13:50:23;;;;;;;23.00;9.87;;;;;;;;;;4973250;28;20031;-63
2023/10/19 13:52:54;;;;;;;18.17;9.55;;;;;;;;;;4973049;28;20018;-65
2023/10/19 13:55:20;;;;;;;18.10;9.02;;;;;;;;;;4972192;28;20384;-63
2023/10/19 13:57:47;;;;;;;17.70;9.68;;;;;;;;;;4973254;28;20019;-63
2023/10/19 14:00:24;;;;;;;15.43;8.43;;;;;;;;;;4973132;28;20066;-64
2023/10/19 14:02:53;;;;;;;18.17;9.80;;;;;;;;;;4975226;28;20034;-63
2023/10/19 14:05:20;;;;;;;16.52;8.98;;;;;;;;;;4976565;28;20031;-64
2023/10/19 14:07:46;;;;;;;20.20;9.35;;;;;;;;;;4976557;28;20404;-64
2023/10/19 14:10:13;;;;;;;16.80;8.85;;;;;;;;;;4976132;28;20110;-65
2023/10/19 14:12:42;;;;;;;19.67;8.50;;;;;;;;;;4976550;28;20109;-63
2023/10/19 14:15:19;;;;;;;15.88;8.52;;;;;;;;;;4976145;28;20109;-63
2023/10/19 14:17:47;;;;;;;15.60;9.63;;;;;;;;;;4975777;28;20069;-63
2023/10/19 14:20:17;;;;;;;15.82;8.48;;;;;;;;;;4976549;28;20023;-63
2023/10/19 14:22:43;;;;;;;15.98;9.30;;;;;;;;;;4976416;28;20121;-62
2023/10/19 14:25:12;;;;;;;17.58;8.95;;;;;;;;;;4975985;28;20097;-63
2023/10/19 14:27:44;;;;;;;20.17;10.85;;;;;;;;;;4976048;28;20481;-64
2023/10/19 14:30:12;;;;;;;17.77;10.45;;;;;;;;;;4974962;28;20023;-63
2023/10/19 14:32:43;;;;;;;15.82;8.15;;;;;;;;;;4956727;28;20118;-62
2023/10/19 14:35:11;;;;;;;22.95;10.60;;;;;;;;;;4957475;28;20051;-62
2023/10/19 14:37:41;;;;;;;13.65;7.97;;;;;;;;;;4955194;28;20086;-63
2023/10/19 14:40:15;;;;;;;16.40;8.57;;;;;;;;;;4963773;28;20054;-64
2023/10/19 14:42:42;;;;;;;17.35;7.85;;;;;;;;;;4956710;28;20453;-63
2023/10/19 14:45:13;;;;;;;15.52;8.68;;;;;;;;;;4956708;28;20082;-63
2023/10/19 14:47:48;;;;;;;12.70;8.07;;;;;;;;;;4956688;28;20027;-63
2023/10/19 14:50:14;;;;;;;15.43;8.73;;;;;;;;;;4956863;28;20103;-63
2023/10/19 14:52:41;;;;;;;15.10;7.22;;;;;;;;;;4956486;28;20520;-63
2023/10/19 14:55:07;;;;;;;15.38;9.25;;;;;;;;;;4956337;28;20031;-64
2023/10/19 14:57:33;;;;;;;18.80;10.13;;;;;;;;;;4956391;28;20047;-64
2023/10/19 15:00:09;;;;;;;18.27;9.32;;;;;;;;;;4956587;28;20342;-63
2023/10/19 15:02:35;;;;;;;16.33;10.25;;;;;;;;;;4956355;28;20035;-64
2023/10/19 15:05:01;;;;;;;17.13;9.77;;;;;;;;;;4956402;28;20114;-62